sensor_id;sensor_type;location;lat;lon;timestamp;pressure;altitude;pressure_sealevel;temperature;humidity
59487;BME280;45298;54.918;73.504;2022-07-21T00:01:02;98410.09;;;18.88;72.72
59487;BME280;45298;54.918;73.504;2022-07-21T00:03:31;98414.19;;;19.21;71.29
59487;BME280;45298;54.918;73.504;2022-07-21T00:06:00;98421.13;;;19.30;70.88
59487;BME280;45298;54.918;73.504;2022-07-21T00:08:29;98425.50;;;18.95;72.06
59487;BME280;45298;54.918;73.504;2022-07-21T00:10:58;98393.41;;;18.56;72.89
59487;BME280;45298;54.918;73.504;2022-07-21T00:13:26;98407.56;;;18.50;73.54
59487;BME280;45298;54.918;73.504;2022-07-21T00:15:56;98414.25;;;18.39;73.87
59487;BME280;45298;54.918;73.504;2022-07-21T00:18:26;98420.53;;;18.32;74.38
59487;BME280;45298;54.918;73.504;2022-07-21T00:20:58;98434.81;;;18.32;74.68
59487;BME280;45298;54.918;73.504;2022-07-21T00:23:28;98421.53;;;18.16;75.10
59487;BME280;45298;54.918;73.504;2022-07-21T00:25:57;98426.00;;;18.08;75.69
59487;BME280;45298;54.918;73.504;2022-07-21T00:28:25;98439.69;;;18.14;76.27
59487;BME280;45298;54.918;73.504;2022-07-21T00:30:54;98427.00;;;18.07;75.75
59487;BME280;45298;54.918;73.504;2022-07-21T00:33:23;98441.25;;;18.23;75.79
59487;BME280;45298;54.918;73.504;2022-07-21T00:35:52;98424.22;;;18.16;76.33
59487;BME280;45298;54.918;73.504;2022-07-21T00:38:21;98411.56;;;18.09;76.46
59487;BME280;45298;54.918;73.504;2022-07-21T00:40:50;98418.59;;;18.10;76.44
59487;BME280;45298;54.918;73.504;2022-07-21T00:43:18;98421.44;;;18.09;76.71
59487;BME280;45298;54.918;73.504;2022-07-21T00:45:47;98433.28;;;18.15;76.91
59487;BME280;45298;54.918;73.504;2022-07-21T00:48:16;98435.59;;;18.18;77.19
59487;BME280;45298;54.918;73.504;2022-07-21T00:50:45;98435.25;;;18.21;77.27
59487;BME280;45298;54.918;73.504;2022-07-21T00:53:14;98418.84;;;18.16;77.50
59487;BME280;45298;54.918;73.504;2022-07-21T00:55:44;98418.69;;;18.32;76.84
59487;BME280;45298;54.918;73.504;2022-07-21T00:58:13;98442.09;;;19.42;74.05
59487;BME280;45298;54.918;73.504;2022-07-21T01:00:41;98422.69;;;20.25;71.03
59487;BME280;45298;54.918;73.504;2022-07-21T01:03:10;98413.09;;;20.99;68.34
59487;BME280;45298;54.918;73.504;2022-07-21T01:05:39;98393.06;;;21.36;65.95
59487;BME280;45298;54.918;73.504;2022-07-21T01:08:08;98413.41;;;21.85;64.84
59487;BME280;45298;54.918;73.504;2022-07-21T01:10:39;98412.16;;;22.08;63.54
59487;BME280;45298;54.918;73.504;2022-07-21T01:13:08;98354.22;;;21.97;62.61
59487;BME280;45298;54.918;73.504;2022-07-21T01:15:37;98413.28;;;22.59;62.00
59487;BME280;45298;54.918;73.504;2022-07-21T01:18:06;98413.34;;;22.91;61.04
59487;BME280;45298;54.918;73.504;2022-07-21T01:20:35;98409.13;;;23.02;60.48
59487;BME280;45298;54.918;73.504;2022-07-21T01:23:04;98415.47;;;23.28;59.98
59487;BME280;45298;54.918;73.504;2022-07-21T01:25:33;98419.06;;;23.47;59.40
59487;BME280;45298;54.918;73.504;2022-07-21T01:28:01;98396.56;;;23.53;58.78
59487;BME280;45298;54.918;73.504;2022-07-21T01:30:30;98426.72;;;23.82;58.64
59487;BME280;45298;54.918;73.504;2022-07-21T01:32:59;98421.44;;;23.88;58.53
59487;BME280;45298;54.918;73.504;2022-07-21T01:35:28;98403.50;;;23.68;58.53
59487;BME280;45298;54.918;73.504;2022-07-21T01:37:58;98409.31;;;23.72;58.48
59487;BME280;45298;54.918;73.504;2022-07-21T01:40:27;98418.28;;;23.97;58.06
59487;BME280;45298;54.918;73.504;2022-07-21T01:43:14;98416.53;;;24.03;57.76
59487;BME280;45298;54.918;73.504;2022-07-21T01:45:43;98420.72;;;24.24;57.65
59487;BME280;45298;54.918;73.504;2022-07-21T01:48:12;98421.88;;;24.35;57.27
59487;BME280;45298;54.918;73.504;2022-07-21T01:50:40;98431.03;;;24.53;57.14
59487;BME280;45298;54.918;73.504;2022-07-21T01:53:09;98415.06;;;24.63;56.36
59487;BME280;45298;54.918;73.504;2022-07-21T01:55:37;98409.97;;;24.73;55.76
59487;BME280;45298;54.918;73.504;2022-07-21T01:58:06;98414.59;;;25.03;55.49
59487;BME280;45298;54.918;73.504;2022-07-21T02:00:35;98410.72;;;25.11;54.74
59487;BME280;45298;54.918;73.504;2022-07-21T02:03:03;98410.44;;;25.31;54.34
59487;BME280;45298;54.918;73.504;2022-07-21T02:05:32;98405.56;;;25.52;54.76
59487;BME280;45298;54.918;73.504;2022-07-21T02:08:01;98417.72;;;25.61;53.76
59487;BME280;45298;54.918;73.504;2022-07-21T02:10:29;98428.34;;;25.51;53.90
59487;BME280;45298;54.918;73.504;2022-07-21T02:12:58;98425.88;;;25.61;53.49
59487;BME280;45298;54.918;73.504;2022-07-21T02:15:27;98443.97;;;25.79;53.92
59487;BME280;45298;54.918;73.504;2022-07-21T02:17:56;98444.06;;;25.73;53.48
59487;BME280;45298;54.918;73.504;2022-07-21T02:20:25;98448.78;;;25.65;54.84
59487;BME280;45298;54.918;73.504;2022-07-21T02:22:57;98445.50;;;25.75;53.13
59487;BME280;45298;54.918;73.504;2022-07-21T02:25:28;98441.09;;;25.62;54.48
59487;BME280;45298;54.918;73.504;2022-07-21T02:27:57;98456.47;;;25.80;53.98
59487;BME280;45298;54.918;73.504;2022-07-21T02:30:25;98452.81;;;25.75;53.13
59487;BME280;45298;54.918;73.504;2022-07-21T02:32:54;98451.09;;;25.50;53.53
59487;BME280;45298;54.918;73.504;2022-07-21T02:35:23;98422.34;;;25.30;54.51
59487;BME280;45298;54.918;73.504;2022-07-21T02:37:52;98434.38;;;25.53;53.49
59487;BME280;45298;54.918;73.504;2022-07-21T02:40:21;98429.25;;;25.45;53.41
59487;BME280;45298;54.918;73.504;2022-07-21T02:42:49;98432.03;;;25.38;53.74
59487;BME280;45298;54.918;73.504;2022-07-21T02:45:18;98442.38;;;25.48;54.62
59487;BME280;45298;54.918;73.504;2022-07-21T02:47:52;98445.13;;;25.29;53.38
59487;BME280;45298;54.918;73.504;2022-07-21T02:50:23;98449.09;;;25.15;55.43
59487;BME280;45298;54.918;73.504;2022-07-21T02:53:02;98457.06;;;25.10;53.98
59487;BME280;45298;54.918;73.504;2022-07-21T02:55:33;98465.44;;;25.08;54.11
59487;BME280;45298;54.918;73.504;2022-07-21T03:00:41;98461.03;;;24.95;53.64
59487;BME280;45298;54.918;73.504;2022-07-21T03:03:11;98462.28;;;24.93;54.70
59487;BME280;45298;54.918;73.504;2022-07-21T03:05:40;98456.66;;;24.94;54.90
59487;BME280;45298;54.918;73.504;2022-07-21T03:08:10;98464.56;;;24.96;55.30
59487;BME280;45298;54.918;73.504;2022-07-21T03:10:40;98451.78;;;24.84;55.28
59487;BME280;45298;54.918;73.504;2022-07-21T03:13:10;98468.38;;;25.07;55.37
59487;BME280;45298;54.918;73.504;2022-07-21T03:15:40;98442.59;;;25.16;56.11
59487;BME280;45298;54.918;73.504;2022-07-21T03:18:15;98456.31;;;25.33;55.78
59487;BME280;45298;54.918;73.504;2022-07-21T03:20:45;98435.00;;;25.37;54.90
59487;BME280;45298;54.918;73.504;2022-07-21T03:23:13;98446.88;;;25.54;54.59
59487;BME280;45298;54.918;73.504;2022-07-21T03:25:42;98456.47;;;25.69;54.90
59487;BME280;45298;54.918;73.504;2022-07-21T03:28:11;98458.72;;;25.84;52.74
59487;BME280;45298;54.918;73.504;2022-07-21T03:30:40;98458.13;;;25.70;53.43
59487;BME280;45298;54.918;73.504;2022-07-21T03:33:08;98450.09;;;25.75;54.35
59487;BME280;45298;54.918;73.504;2022-07-21T03:35:37;98439.34;;;25.80;54.28
59487;BME280;45298;54.918;73.504;2022-07-21T03:38:05;98462.84;;;25.86;53.61
59487;BME280;45298;54.918;73.504;2022-07-21T03:40:36;98471.22;;;25.73;53.42
59487;BME280;45298;54.918;73.504;2022-07-21T03:43:06;98455.63;;;25.56;53.66
59487;BME280;45298;54.918;73.504;2022-07-21T03:45:36;98461.03;;;25.56;53.62
59487;BME280;45298;54.918;73.504;2022-07-21T03:48:06;98460.00;;;25.57;54.00
59487;BME280;45298;54.918;73.504;2022-07-21T03:50:40;98431.38;;;25.43;54.28
59487;BME280;45298;54.918;73.504;2022-07-21T03:53:10;98455.84;;;25.67;53.79
59487;BME280;45298;54.918;73.504;2022-07-21T03:55:39;98465.69;;;25.79;53.16
59487;BME280;45298;54.918;73.504;2022-07-21T03:58:12;98462.13;;;25.67;53.78
59487;BME280;45298;54.918;73.504;2022-07-21T04:00:43;98450.22;;;25.80;53.14
59487;BME280;45298;54.918;73.504;2022-07-21T04:03:12;98465.72;;;26.03;51.88
59487;BME280;45298;54.918;73.504;2022-07-21T04:05:42;98408.16;;;25.47;52.06
59487;BME280;45298;54.918;73.504;2022-07-21T04:08:11;98477.59;;;25.67;52.30
59487;BME280;45298;54.918;73.504;2022-07-21T04:10:42;98455.97;;;25.60;52.84
59487;BME280;45298;54.918;73.504;2022-07-21T04:13:12;98468.28;;;25.74;52.42
59487;BME280;45298;54.918;73.504;2022-07-21T04:15:42;98455.56;;;25.87;52.56
59487;BME280;45298;54.918;73.504;2022-07-21T04:18:10;98462.16;;;26.03;51.86
59487;BME280;45298;54.918;73.504;2022-07-21T04:20:39;98463.50;;;26.24;53.42
59487;BME280;45298;54.918;73.504;2022-07-21T04:23:08;98470.00;;;26.35;52.88
59487;BME280;45298;54.918;73.504;2022-07-21T04:25:36;98474.84;;;26.57;51.72
59487;BME280;45298;54.918;73.504;2022-07-21T04:28:09;98462.50;;;26.66;51.96
59487;BME280;45298;54.918;73.504;2022-07-21T04:30:39;98472.34;;;26.43;51.37
59487;BME280;45298;54.918;73.504;2022-07-21T04:33:08;98472.13;;;26.45;52.18
59487;BME280;45298;54.918;73.504;2022-07-21T04:35:37;98471.06;;;26.34;51.55
59487;BME280;45298;54.918;73.504;2022-07-21T04:38:08;98450.94;;;26.11;51.11
59487;BME280;45298;54.918;73.504;2022-07-21T04:40:37;98475.78;;;26.50;51.26
59487;BME280;45298;54.918;73.504;2022-07-21T04:43:07;98469.59;;;26.67;50.25
59487;BME280;45298;54.918;73.504;2022-07-21T04:45:38;98463.69;;;26.82;50.02
59487;BME280;45298;54.918;73.504;2022-07-21T04:48:06;98464.03;;;26.85;49.85
59487;BME280;45298;54.918;73.504;2022-07-21T04:50:35;98459.66;;;26.84;50.14
59487;BME280;45298;54.918;73.504;2022-07-21T04:53:06;98460.53;;;27.02;49.21
59487;BME280;45298;54.918;73.504;2022-07-21T04:55:36;98465.22;;;27.19;49.68
59487;BME280;45298;54.918;73.504;2022-07-21T04:58:05;98477.41;;;27.45;48.50
59487;BME280;45298;54.918;73.504;2022-07-21T05:00:33;98483.81;;;27.51;48.86
59487;BME280;45298;54.918;73.504;2022-07-21T05:03:02;98470.63;;;27.59;48.88
59487;BME280;45298;54.918;73.504;2022-07-21T05:05:31;98469.03;;;27.47;48.70
59487;BME280;45298;54.918;73.504;2022-07-21T05:08:02;98468.78;;;27.19;48.07
59487;BME280;45298;54.918;73.504;2022-07-21T05:10:31;98471.78;;;27.06;48.70
59487;BME280;45298;54.918;73.504;2022-07-21T05:13:00;98491.78;;;26.99;49.26
59487;BME280;45298;54.918;73.504;2022-07-21T05:15:29;98464.38;;;26.89;48.56
59487;BME280;45298;54.918;73.504;2022-07-21T05:17:58;98480.69;;;26.89;48.83
59487;BME280;45298;54.918;73.504;2022-07-21T05:20:27;98478.47;;;26.86;49.66
59487;BME280;45298;54.918;73.504;2022-07-21T05:22:55;98481.97;;;26.98;50.42
59487;BME280;45298;54.918;73.504;2022-07-21T05:25:24;98490.50;;;27.31;49.73
59487;BME280;45298;54.918;73.504;2022-07-21T05:27:52;98489.31;;;27.27;49.02
59487;BME280;45298;54.918;73.504;2022-07-21T05:30:21;98481.16;;;27.27;48.23
59487;BME280;45298;54.918;73.504;2022-07-21T05:32:50;98471.19;;;27.33;48.62
59487;BME280;45298;54.918;73.504;2022-07-21T05:35:18;98472.28;;;27.60;48.83
59487;BME280;45298;54.918;73.504;2022-07-21T05:37:47;98486.16;;;27.93;47.31
59487;BME280;45298;54.918;73.504;2022-07-21T05:40:16;98485.50;;;27.86;47.45
59487;BME280;45298;54.918;73.504;2022-07-21T05:42:44;98482.78;;;27.86;47.65
59487;BME280;45298;54.918;73.504;2022-07-21T05:45:13;98491.44;;;27.83;47.33
59487;BME280;45298;54.918;73.504;2022-07-21T05:47:42;98487.53;;;27.79;47.45
59487;BME280;45298;54.918;73.504;2022-07-21T05:50:11;98463.38;;;27.82;47.82
59487;BME280;45298;54.918;73.504;2022-07-21T05:52:40;98476.84;;;27.89;47.29
59487;BME280;45298;54.918;73.504;2022-07-21T05:55:10;98479.78;;;27.87;47.52
59487;BME280;45298;54.918;73.504;2022-07-21T05:57:39;98478.88;;;27.82;47.41
59487;BME280;45298;54.918;73.504;2022-07-21T06:00:14;98473.94;;;27.62;48.06
59487;BME280;45298;54.918;73.504;2022-07-21T06:02:44;98482.97;;;27.50;48.32
59487;BME280;45298;54.918;73.504;2022-07-21T06:05:13;98479.59;;;27.31;49.15
59487;BME280;45298;54.918;73.504;2022-07-21T06:07:42;98476.06;;;27.02;48.72
59487;BME280;45298;54.918;73.504;2022-07-21T06:10:12;98482.31;;;27.02;49.09
59487;BME280;45298;54.918;73.504;2022-07-21T06:12:44;98483.28;;;26.96;48.34
59487;BME280;45298;54.918;73.504;2022-07-21T06:15:13;98477.97;;;26.89;49.47
59487;BME280;45298;54.918;73.504;2022-07-21T06:17:43;98480.31;;;26.97;48.40
59487;BME280;45298;54.918;73.504;2022-07-21T06:20:13;98486.38;;;26.88;49.39
59487;BME280;45298;54.918;73.504;2022-07-21T06:22:42;98491.41;;;27.08;48.13
59487;BME280;45298;54.918;73.504;2022-07-21T06:25:11;98487.78;;;27.31;48.13
59487;BME280;45298;54.918;73.504;2022-07-21T06:27:40;98493.16;;;27.55;47.66
59487;BME280;45298;54.918;73.504;2022-07-21T06:30:10;98479.66;;;27.48;47.77
59487;BME280;45298;54.918;73.504;2022-07-21T06:32:39;98486.72;;;27.32;47.06
59487;BME280;45298;54.918;73.504;2022-07-21T06:35:09;98476.72;;;27.09;48.00
59487;BME280;45298;54.918;73.504;2022-07-21T06:37:37;98470.16;;;27.22;48.08
59487;BME280;45298;54.918;73.504;2022-07-21T06:40:07;98475.19;;;27.42;46.98
59487;BME280;45298;54.918;73.504;2022-07-21T06:42:36;98480.38;;;27.72;46.83
59487;BME280;45298;54.918;73.504;2022-07-21T06:45:06;98473.56;;;27.58;45.82
59487;BME280;45298;54.918;73.504;2022-07-21T06:47:35;98478.03;;;27.64;45.97
59487;BME280;45298;54.918;73.504;2022-07-21T06:50:04;98473.41;;;27.48;45.70
59487;BME280;45298;54.918;73.504;2022-07-21T06:52:34;98470.78;;;27.53;45.73
59487;BME280;45298;54.918;73.504;2022-07-21T06:55:05;98472.75;;;27.57;46.44
59487;BME280;45298;54.918;73.504;2022-07-21T06:57:35;98467.25;;;27.40;46.49
59487;BME280;45298;54.918;73.504;2022-07-21T07:00:05;98470.75;;;27.24;46.15
59487;BME280;45298;54.918;73.504;2022-07-21T07:02:35;98473.06;;;27.03;46.50
59487;BME280;45298;54.918;73.504;2022-07-21T07:05:04;98456.28;;;27.06;47.45
59487;BME280;45298;54.918;73.504;2022-07-21T07:07:34;98457.94;;;27.07;47.39
59487;BME280;45298;54.918;73.504;2022-07-21T07:10:04;98445.41;;;27.06;47.80
59487;BME280;45298;54.918;73.504;2022-07-21T07:12:33;98445.94;;;27.37;47.60
59487;BME280;45298;54.918;73.504;2022-07-21T07:15:25;98448.66;;;27.66;46.11
59487;BME280;45298;54.918;73.504;2022-07-21T07:17:54;98433.41;;;27.36;45.25
59487;BME280;45298;54.918;73.504;2022-07-21T07:20:23;98428.41;;;27.45;45.22
59487;BME280;45298;54.918;73.504;2022-07-21T07:22:52;98417.06;;;27.36;45.89
59487;BME280;45298;54.918;73.504;2022-07-21T07:25:21;98437.56;;;27.39;45.15
59487;BME280;45298;54.918;73.504;2022-07-21T07:27:58;98423.38;;;27.37;45.64
59487;BME280;45298;54.918;73.504;2022-07-21T07:30:26;98378.25;;;26.95;45.05
59487;BME280;45298;54.918;73.504;2022-07-21T07:32:55;98420.38;;;26.92;46.19
59487;BME280;45298;54.918;73.504;2022-07-21T07:35:24;98419.00;;;26.66;45.87
59487;BME280;45298;54.918;73.504;2022-07-21T07:37:53;98444.56;;;26.53;45.88
59487;BME280;45298;54.918;73.504;2022-07-21T07:40:22;98378.41;;;26.00;45.80
59487;BME280;45298;54.918;73.504;2022-07-21T07:42:51;98439.53;;;26.21;45.97
59487;BME280;45298;54.918;73.504;2022-07-21T07:45:20;98429.34;;;25.92;47.01
59487;BME280;45298;54.918;73.504;2022-07-21T07:47:51;98437.22;;;25.82;47.90
59487;BME280;45298;54.918;73.504;2022-07-21T07:50:20;98436.38;;;25.58;48.90
59487;BME280;45298;54.918;73.504;2022-07-21T07:52:51;98467.63;;;25.60;49.09
59487;BME280;45298;54.918;73.504;2022-07-21T07:55:20;98457.88;;;25.41;49.66
59487;BME280;45298;54.918;73.504;2022-07-21T07:57:48;98467.91;;;25.40;52.70
59487;BME280;45298;54.918;73.504;2022-07-21T08:00:18;98470.84;;;25.27;52.66
59487;BME280;45298;54.918;73.504;2022-07-21T08:03:07;98473.28;;;24.98;52.07
59487;BME280;45298;54.918;73.504;2022-07-21T08:05:36;98476.25;;;24.78;52.12
59487;BME280;45298;54.918;73.504;2022-07-21T08:08:05;98491.88;;;24.57;52.33
59487;BME280;45298;54.918;73.504;2022-07-21T08:10:34;98468.91;;;24.41;53.08
59487;BME280;45298;54.918;73.504;2022-07-21T08:13:11;98487.50;;;24.37;52.58
59487;BME280;45298;54.918;73.504;2022-07-21T08:15:40;98493.00;;;24.31;53.37
59487;BME280;45298;54.918;73.504;2022-07-21T08:18:09;98514.19;;;24.34;53.37
59487;BME280;45298;54.918;73.504;2022-07-21T08:20:38;98521.94;;;24.30;53.47
59487;BME280;45298;54.918;73.504;2022-07-21T08:23:10;98529.91;;;24.25;53.70
59487;BME280;45298;54.918;73.504;2022-07-21T08:25:39;98525.66;;;24.10;54.18
59487;BME280;45298;54.918;73.504;2022-07-21T08:28:08;98524.94;;;23.90;54.94
59487;BME280;45298;54.918;73.504;2022-07-21T08:30:37;98504.31;;;23.63;55.14
59487;BME280;45298;54.918;73.504;2022-07-21T08:33:06;98528.84;;;23.68;55.98
59487;BME280;45298;54.918;73.504;2022-07-21T08:35:35;98522.44;;;23.63;58.72
59487;BME280;45298;54.918;73.504;2022-07-21T08:38:07;98511.88;;;23.54;61.80
59487;BME280;45298;54.918;73.504;2022-07-21T08:40:38;98509.97;;;23.62;63.41
59487;BME280;45298;54.918;73.504;2022-07-21T08:43:09;98524.88;;;23.71;61.97
59487;BME280;45298;54.918;73.504;2022-07-21T08:45:37;98528.53;;;23.83;63.72
59487;BME280;45298;54.918;73.504;2022-07-21T08:48:06;98524.28;;;24.01;62.45
59487;BME280;45298;54.918;73.504;2022-07-21T08:50:39;98520.66;;;24.07;62.74
59487;BME280;45298;54.918;73.504;2022-07-21T08:53:07;98502.75;;;24.06;63.08
59487;BME280;45298;54.918;73.504;2022-07-21T08:55:37;98508.47;;;23.98;62.14
59487;BME280;45298;54.918;73.504;2022-07-21T08:58:09;98501.25;;;23.85;64.50
59487;BME280;45298;54.918;73.504;2022-07-21T09:00:41;98509.09;;;24.00;62.42
59487;BME280;45298;54.918;73.504;2022-07-21T09:03:26;98488.81;;;24.28;64.47
59487;BME280;45298;54.918;73.504;2022-07-21T09:06:07;98496.81;;;24.85;63.47
59487;BME280;45298;54.918;73.504;2022-07-21T09:08:49;98492.75;;;25.25;59.62
59487;BME280;45298;54.918;73.504;2022-07-21T09:14:10;98480.97;;;25.50;59.51
59487;BME280;45298;54.918;73.504;2022-07-21T09:16:43;98484.34;;;25.76;59.19
59487;BME280;45298;54.918;73.504;2022-07-21T09:19:30;98479.41;;;25.97;59.11
59487;BME280;45298;54.918;73.504;2022-07-21T09:22:12;98462.53;;;26.06;55.38
59487;BME280;45298;54.918;73.504;2022-07-21T09:24:41;98474.59;;;26.22;56.66
59487;BME280;45298;54.918;73.504;2022-07-21T09:27:24;98477.19;;;26.29;54.58
59487;BME280;45298;54.918;73.504;2022-07-21T09:29:56;98487.34;;;26.10;56.14
59487;BME280;45298;54.918;73.504;2022-07-21T09:32:32;98488.16;;;25.87;55.78
59487;BME280;45298;54.918;73.504;2022-07-21T09:35:10;98490.09;;;25.68;56.63
59487;BME280;45298;54.918;73.504;2022-07-21T09:37:43;98491.50;;;25.58;57.00
59487;BME280;45298;54.918;73.504;2022-07-21T09:40:13;98470.38;;;25.42;57.58
59487;BME280;45298;54.918;73.504;2022-07-21T09:42:51;98480.59;;;25.46;58.70
59487;BME280;45298;54.918;73.504;2022-07-21T09:45:21;98473.59;;;25.39;58.23
59487;BME280;45298;54.918;73.504;2022-07-21T09:47:49;98476.06;;;25.40;57.75
59487;BME280;45298;54.918;73.504;2022-07-21T09:50:17;98473.59;;;25.39;58.31
59487;BME280;45298;54.918;73.504;2022-07-21T09:52:54;98458.44;;;25.31;57.07
59487;BME280;45298;54.918;73.504;2022-07-21T09:55:24;98459.63;;;25.35;57.43
59487;BME280;45298;54.918;73.504;2022-07-21T09:57:54;98467.16;;;25.52;58.10
59487;BME280;45298;54.918;73.504;2022-07-21T10:00:23;98465.88;;;25.54;57.36
59487;BME280;45298;54.918;73.504;2022-07-21T10:02:52;98459.28;;;25.62;57.66
59487;BME280;45298;54.918;73.504;2022-07-21T10:05:22;98481.72;;;25.81;57.28
59487;BME280;45298;54.918;73.504;2022-07-21T10:08:02;98446.56;;;25.86;58.49
59487;BME280;45298;54.918;73.504;2022-07-21T10:10:34;98461.47;;;26.19;55.94
59487;BME280;45298;54.918;73.504;2022-07-21T10:13:23;98469.63;;;26.31;56.47
59487;BME280;45298;54.918;73.504;2022-07-21T10:15:53;98458.75;;;26.43;54.51
59487;BME280;45298;54.918;73.504;2022-07-21T10:18:25;98449.38;;;26.63;52.83
59487;BME280;45298;54.918;73.504;2022-07-21T10:21:00;98406.75;;;26.51;52.06
59487;BME280;45298;54.918;73.504;2022-07-21T10:23:42;98457.72;;;26.97;53.84
59487;BME280;45298;54.918;73.504;2022-07-21T10:26:11;98459.00;;;27.06;52.77
59487;BME280;45298;54.918;73.504;2022-07-21T10:28:40;98458.31;;;27.28;52.11
59487;BME280;45298;54.918;73.504;2022-07-21T10:41:50;98451.81;;;27.75;52.82
59487;BME280;45298;54.918;73.504;2022-07-21T10:47:11;98441.06;;;27.85;50.28
59487;BME280;45298;54.918;73.504;2022-07-21T10:49:59;98420.50;;;27.78;48.11
59487;BME280;45298;54.918;73.504;2022-07-21T10:58:12;98440.91;;;27.92;44.38
59487;BME280;45298;54.918;73.504;2022-07-21T11:03:38;98433.25;;;27.89;39.65
59487;BME280;45298;54.918;73.504;2022-07-21T11:06:26;98413.69;;;27.92;38.40
59487;BME280;45298;54.918;73.504;2022-07-21T11:11:39;98424.56;;;27.58;38.89
59487;BME280;45298;54.918;73.504;2022-07-21T11:14:13;98434.09;;;27.43;38.09
59487;BME280;45298;54.918;73.504;2022-07-21T11:19:48;98446.78;;;27.38;38.66
59487;BME280;45298;54.918;73.504;2022-07-21T11:22:29;98438.00;;;27.19;38.02
59487;BME280;45298;54.918;73.504;2022-07-21T11:25:05;98445.25;;;27.13;38.63
59487;BME280;45298;54.918;73.504;2022-07-21T11:27:37;98453.44;;;27.01;39.72
59487;BME280;45298;54.918;73.504;2022-07-21T11:30:10;98450.06;;;26.94;39.15
59487;BME280;45298;54.918;73.504;2022-07-21T11:32:38;98438.63;;;26.68;39.92
59487;BME280;45298;54.918;73.504;2022-07-21T11:35:07;98453.66;;;26.59;40.73
59487;BME280;45298;54.918;73.504;2022-07-21T11:37:42;98453.16;;;26.62;40.52
59487;BME280;45298;54.918;73.504;2022-07-21T11:40:14;98450.75;;;26.77;40.42
59487;BME280;45298;54.918;73.504;2022-07-21T11:42:46;98437.91;;;26.84;40.57
59487;BME280;45298;54.918;73.504;2022-07-21T11:45:16;98452.41;;;26.90;40.61
59487;BME280;45298;54.918;73.504;2022-07-21T11:47:48;98464.81;;;26.98;40.59
59487;BME280;45298;54.918;73.504;2022-07-21T11:50:19;98463.88;;;26.92;40.42
59487;BME280;45298;54.918;73.504;2022-07-21T11:52:48;98431.41;;;26.74;40.39
59487;BME280;45298;54.918;73.504;2022-07-21T11:55:18;98452.22;;;26.80;40.00
59487;BME280;45298;54.918;73.504;2022-07-21T11:57:49;98442.84;;;26.76;40.35
59487;BME280;45298;54.918;73.504;2022-07-21T12:00:18;98444.25;;;26.78;40.50
59487;BME280;45298;54.918;73.504;2022-07-21T12:02:48;98434.09;;;26.74;40.10
59487;BME280;45298;54.918;73.504;2022-07-21T12:05:18;98449.50;;;26.80;39.73
59487;BME280;45298;54.918;73.504;2022-07-21T12:07:48;98440.13;;;26.76;41.09
59487;BME280;45298;54.918;73.504;2022-07-21T12:10:27;98434.22;;;26.79;40.35
59487;BME280;45298;54.918;73.504;2022-07-21T12:13:06;98442.59;;;26.77;40.49
59487;BME280;45298;54.918;73.504;2022-07-21T12:15:45;98461.31;;;26.85;41.65
59487;BME280;45298;54.918;73.504;2022-07-21T12:18:21;98452.66;;;26.77;40.81
59487;BME280;45298;54.918;73.504;2022-07-21T12:21:10;98461.91;;;26.64;39.64
59487;BME280;45298;54.918;73.504;2022-07-21T12:23:46;98477.19;;;26.53;40.20
59487;BME280;45298;54.918;73.504;2022-07-21T12:26:22;98475.91;;;26.55;38.61
59487;BME280;45298;54.918;73.504;2022-07-21T12:29:00;98489.50;;;26.55;39.31
59487;BME280;45298;54.918;73.504;2022-07-21T12:31:36;98478.50;;;26.38;37.07
59487;BME280;45298;54.918;73.504;2022-07-21T12:34:15;98493.88;;;26.45;37.10
59487;BME280;45298;54.918;73.504;2022-07-21T12:36:58;98471.66;;;26.24;36.94
59487;BME280;45298;54.918;73.504;2022-07-21T12:40:03;98485.72;;;26.21;36.31
59487;BME280;45298;54.918;73.504;2022-07-21T12:42:41;98484.78;;;26.15;37.25
59487;BME280;45298;54.918;73.504;2022-07-21T12:45:25;98487.44;;;26.03;36.93
59487;BME280;45298;54.918;73.504;2022-07-21T12:48:12;98504.19;;;25.88;36.77
59487;BME280;45298;54.918;73.504;2022-07-21T12:53:53;98514.78;;;25.66;42.20
59487;BME280;45298;54.918;73.504;2022-07-21T12:56:36;98522.13;;;25.47;43.19
59487;BME280;45298;54.918;73.504;2022-07-21T12:59:12;98493.69;;;25.19;43.95
59487;BME280;45298;54.918;73.504;2022-07-21T13:01:53;98495.81;;;25.17;44.40
59487;BME280;45298;54.918;73.504;2022-07-21T13:04:36;98498.81;;;25.09;43.73
59487;BME280;45298;54.918;73.504;2022-07-21T13:07:15;98499.50;;;25.04;43.92
59487;BME280;45298;54.918;73.504;2022-07-21T13:10:00;98521.03;;;25.17;44.12
59487;BME280;45298;54.918;73.504;2022-07-21T13:12:37;98479.56;;;24.98;43.34
59487;BME280;45298;54.918;73.504;2022-07-21T13:15:15;98502.69;;;25.31;43.32
59487;BME280;45298;54.918;73.504;2022-07-21T13:17:49;98494.25;;;25.40;43.01
59487;BME280;45298;54.918;73.504;2022-07-21T13:20:25;98487.09;;;25.45;41.95
59487;BME280;45298;54.918;73.504;2022-07-21T13:22:53;98513.13;;;25.65;42.67
59487;BME280;45298;54.918;73.504;2022-07-21T13:25:22;98514.75;;;25.54;42.90
59487;BME280;45298;54.918;73.504;2022-07-21T13:27:57;98477.63;;;25.17;43.34
59487;BME280;45298;54.918;73.504;2022-07-21T13:30:25;98526.28;;;25.31;44.09
59487;BME280;45298;54.918;73.504;2022-07-21T13:32:54;98521.88;;;25.18;43.74
59487;BME280;45298;54.918;73.504;2022-07-21T13:35:23;98517.66;;;25.03;44.24
59487;BME280;45298;54.918;73.504;2022-07-21T13:37:55;98517.13;;;24.95;44.85
59487;BME280;45298;54.918;73.504;2022-07-21T13:40:25;98524.53;;;24.87;44.95
59487;BME280;45298;54.918;73.504;2022-07-21T13:43:14;98522.59;;;24.69;45.41
59487;BME280;45298;54.918;73.504;2022-07-21T13:46:05;98528.69;;;24.65;46.15
59487;BME280;45298;54.918;73.504;2022-07-21T13:48:34;98527.94;;;24.57;47.12